sensor_id;sensor_type;location;lat;lon;timestamp;pressure;altitude;pressure_sealevel;temperature;humidity
11413;BME280;5762;43.256;26.960;2022-09-01T00:02:23;99575.98;;;19.49;100.00
11413;BME280;5762;43.256;26.960;2022-09-01T00:04:53;99574.75;;;19.46;100.00
11413;BME280;5762;43.256;26.960;2022-09-01T00:07:22;99567.64;;;19.51;100.00
11413;BME280;5762;43.256;26.960;2022-09-01T00:09:53;99561.64;;;19.55;100.00
11413;BME280;5762;43.256;26.960;2022-09-01T00:12:21;99562.07;;;19.67;100.00
11413;BME280;5762;43.256;26.960;2022-09-01T00:14:52;99556.15;;;19.65;100.00
11413;BME280;5762;43.256;26.960;2022-09-01T00:17:21;99550.66;;;19.65;100.00
11413;BME280;5762;43.256;26.960;2022-09-01T00:19:51;99550.44;;;19.73;100.00
11413;BME280;5762;43.256;26.960;2022-09-01T00:22:19;99536.08;;;19.84;100.00
11413;BME280;5762;43.256;26.960;2022-09-01T00:24:50;99539.33;;;19.89;100.00
11413;BME280;5762;43.256;26.960;2022-09-01T00:27:18;99537.09;;;19.85;100.00
11413;BME280;5762;43.256;26.960;2022-09-01T00:29:48;99538.48;;;19.75;100.00
11413;BME280;5762;43.256;26.960;2022-09-01T00:32:17;99545.81;;;19.68;100.00
11413;BME280;5762;43.256;26.960;2022-09-01T00:34:47;99553.91;;;19.61;100.00
11413;BME280;5762;43.256;26.960;2022-09-01T00:37:15;99553.77;;;19.54;100.00
11413;BME280;5762;43.256;26.960;2022-09-01T00:39:45;99560.77;;;19.51;100.00
11413;BME280;5762;43.256;26.960;2022-09-01T00:42:14;99565.15;;;19.46;100.00
11413;BME280;5762;43.256;26.960;2022-09-01T00:44:44;99569.77;;;19.42;100.00
11413;BME280;5762;43.256;26.960;2022-09-01T00:47:12;99572.16;;;19.43;100.00
11413;BME280;5762;43.256;26.960;2022-09-01T00:49:44;99556.91;;;19.46;100.00
11413;BME280;5762;43.256;26.960;2022-09-01T00:52:15;99556.34;;;19.47;100.00
11413;BME280;5762;43.256;26.960;2022-09-01T00:54:44;99549.29;;;19.55;100.00
11413;BME280;5762;43.256;26.960;2022-09-01T00:57:13;99540.55;;;19.59;100.00
11413;BME280;5762;43.256;26.960;2022-09-01T00:59:46;99528.19;;;19.69;100.00
11413;BME280;5762;43.256;26.960;2022-09-01T01:02:13;99520.95;;;19.70;100.00
11413;BME280;5762;43.256;26.960;2022-09-01T01:04:43;99516.14;;;19.77;100.00
11413;BME280;5762;43.256;26.960;2022-09-01T01:07:12;99513.58;;;19.74;100.00
11413;BME280;5762;43.256;26.960;2022-09-01T01:09:42;99511.02;;;19.75;100.00
11413;BME280;5762;43.256;26.960;2022-09-01T01:12:12;99507.02;;;19.69;100.00
11413;BME280;5762;43.256;26.960;2022-09-01T01:14:41;99506.58;;;19.67;100.00
11413;BME280;5762;43.256;26.960;2022-09-01T01:17:12;99518.87;;;19.64;100.00
11413;BME280;5762;43.256;26.960;2022-09-01T01:19:43;99513.37;;;19.64;100.00
11413;BME280;5762;43.256;26.960;2022-09-01T01:22:14;99507.89;;;19.64;100.00
11413;BME280;5762;43.256;26.960;2022-09-01T01:24:42;99507.67;;;19.63;100.00
11413;BME280;5762;43.256;26.960;2022-09-01T01:27:13;99505.35;;;19.65;100.00
11413;BME280;5762;43.256;26.960;2022-09-01T01:29:42;99503.98;;;19.65;100.00
11413;BME280;5762;43.256;26.960;2022-09-01T01:32:13;99501.23;;;19.65;100.00
11413;BME280;5762;43.256;26.960;2022-09-01T01:34:44;99508.31;;;19.66;100.00
11413;BME280;5762;43.256;26.960;2022-09-01T01:37:13;99504.64;;;19.58;100.00
11413;BME280;5762;43.256;26.960;2022-09-01T01:39:43;99501.83;;;19.55;100.00
11413;BME280;5762;43.256;26.960;2022-09-01T01:42:14;99502.04;;;19.56;100.00
11413;BME280;5762;43.256;26.960;2022-09-01T01:44:45;99498.20;;;19.60;100.00
11413;BME280;5762;43.256;26.960;2022-09-01T01:47:15;99501.89;;;19.58;100.00
11413;BME280;5762;43.256;26.960;2022-09-01T01:49:46;99500.23;;;19.54;100.00
11413;BME280;5762;43.256;26.960;2022-09-01T01:52:16;99505.30;;;19.52;100.00
11413;BME280;5762;43.256;26.960;2022-09-01T01:54:45;99500.96;;;19.51;100.00
11413;BME280;5762;43.256;26.960;2022-09-01T01:57:14;99500.38;;;19.51;100.00
11413;BME280;5762;43.256;26.960;2022-09-01T01:59:43;99500.14;;;19.50;100.00
11413;BME280;5762;43.256;26.960;2022-09-01T02:02:13;99495.23;;;19.50;100.00
11413;BME280;5762;43.256;26.960;2022-09-01T02:04:43;99492.20;;;19.45;100.00
11413;BME280;5762;43.256;26.960;2022-09-01T02:07:14;99496.78;;;19.37;100.00
11413;BME280;5762;43.256;26.960;2022-09-01T02:09:43;99492.88;;;19.38;100.00
11413;BME280;5762;43.256;26.960;2022-09-01T02:12:12;99488.80;;;19.42;100.00
11413;BME280;5762;43.256;26.960;2022-09-01T02:14:42;99491.55;;;19.42;100.00
11413;BME280;5762;43.256;26.960;2022-09-01T02:17:12;99490.28;;;19.36;100.00
11413;BME280;5762;43.256;26.960;2022-09-01T02:19:46;99488.98;;;19.30;100.00
11413;BME280;5762;43.256;26.960;2022-09-01T02:22:15;99487.32;;;19.25;100.00
11413;BME280;5762;43.256;26.960;2022-09-01T02:24:46;99485.16;;;19.25;100.00
11413;BME280;5762;43.256;26.960;2022-09-01T02:27:15;99480.82;;;19.24;100.00
11413;BME280;5762;43.256;26.960;2022-09-01T02:29:46;99477.86;;;19.23;100.00
11413;BME280;5762;43.256;26.960;2022-09-01T02:32:16;99475.27;;;19.20;100.00
11413;BME280;5762;43.256;26.960;2022-09-01T02:34:45;99476.20;;;19.18;100.00
11413;BME280;5762;43.256;26.960;2022-09-01T02:37:14;99474.25;;;19.19;100.00
11413;BME280;5762;43.256;26.960;2022-09-01T02:39:44;99471.80;;;19.23;100.00
11413;BME280;5762;43.256;26.960;2022-09-01T02:42:14;99473.67;;;19.19;100.00
11413;BME280;5762;43.256;26.960;2022-09-01T02:44:44;99466.81;;;19.19;100.00
11413;BME280;5762;43.256;26.960;2022-09-01T02:47:13;99464.94;;;19.23;100.00
11413;BME280;5762;43.256;26.960;2022-09-01T02:49:43;99459.88;;;19.16;100.00
11413;BME280;5762;43.256;26.960;2022-09-01T02:54:41;99459.81;;;19.12;100.00
11413;BME280;5762;43.256;26.960;2022-09-01T02:57:11;99467.46;;;19.13;100.00
11413;BME280;5762;43.256;26.960;2022-09-01T02:59:40;99468.55;;;19.08;100.00
11413;BME280;5762;43.256;26.960;2022-09-01T03:02:09;99470.13;;;19.09;100.00
11413;BME280;5762;43.256;26.960;2022-09-01T03:04:38;99470.56;;;19.11;100.00
11413;BME280;5762;43.256;26.960;2022-09-01T03:07:08;99474.10;;;19.12;100.00
11413;BME280;5762;43.256;26.960;2022-09-01T03:09:37;99473.45;;;19.08;100.00
11413;BME280;5762;43.256;26.960;2022-09-01T03:12:07;99469.91;;;19.08;100.00
11413;BME280;5762;43.256;26.960;2022-09-01T03:14:35;99473.41;;;19.05;100.00
11413;BME280;5762;43.256;26.960;2022-09-01T03:17:04;99473.02;;;19.06;100.00
11413;BME280;5762;43.256;26.960;2022-09-01T03:19:34;99479.08;;;19.06;100.00
11413;BME280;5762;43.256;26.960;2022-09-01T03:22:03;99479.97;;;19.00;100.00
11413;BME280;5762;43.256;26.960;2022-09-01T03:24:32;99476.14;;;18.95;100.00
11413;BME280;5762;43.256;26.960;2022-09-01T03:27:01;99479.61;;;18.92;100.00
11413;BME280;5762;43.256;26.960;2022-09-01T03:29:32;99485.45;;;18.91;100.00
11413;BME280;5762;43.256;26.960;2022-09-01T03:32:00;99481.98;;;18.94;100.00
11413;BME280;5762;43.256;26.960;2022-09-01T03:34:30;99491.50;;;18.90;100.00
11413;BME280;5762;43.256;26.960;2022-09-01T03:36:59;99485.07;;;18.83;100.00
11413;BME280;5762;43.256;26.960;2022-09-01T03:39:29;99480.36;;;18.73;100.00
11413;BME280;5762;43.256;26.960;2022-09-01T03:41:59;99484.99;;;18.79;100.00
11413;BME280;5762;43.256;26.960;2022-09-01T03:44:28;99487.52;;;18.78;100.00
11413;BME280;5762;43.256;26.960;2022-09-01T03:46:57;99483.27;;;18.81;100.00
11413;BME280;5762;43.256;26.960;2022-09-01T03:49:27;99480.44;;;18.77;100.00
11413;BME280;5762;43.256;26.960;2022-09-01T03:51:55;99484.42;;;18.80;100.00
11413;BME280;5762;43.256;26.960;2022-09-01T03:54:26;99482.47;;;18.80;100.00
11413;BME280;5762;43.256;26.960;2022-09-01T03:56:55;99482.91;;;18.82;100.00
11413;BME280;5762;43.256;26.960;2022-09-01T03:59:24;99483.84;;;18.80;100.00
11413;BME280;5762;43.256;26.960;2022-09-01T04:01:53;99480.30;;;18.80;100.00
11413;BME280;5762;43.256;26.960;2022-09-01T04:04:23;99482.77;;;18.85;100.00
11413;BME280;5762;43.256;26.960;2022-09-01T04:06:52;99477.64;;;18.83;100.00
11413;BME280;5762;43.256;26.960;2022-09-01T04:09:22;99480.02;;;18.85;100.00
11413;BME280;5762;43.256;26.960;2022-09-01T04:11:50;99486.38;;;18.89;100.00
11413;BME280;5762;43.256;26.960;2022-09-01T04:14:20;99480.40;;;18.93;100.00
11413;BME280;5762;43.256;26.960;2022-09-01T04:16:49;99480.18;;;18.92;100.00
11413;BME280;5762;43.256;26.960;2022-09-01T04:19:20;99476.14;;;18.95;100.00
11413;BME280;5762;43.256;26.960;2022-09-01T04:21:54;99480.98;;;19.02;100.00
11413;BME280;5762;43.256;26.960;2022-09-01T04:24:24;99479.08;;;19.06;100.00
11413;BME280;5762;43.256;26.960;2022-09-01T04:26:54;99479.02;;;19.12;100.00
11413;BME280;5762;43.256;26.960;2022-09-01T04:29:25;99479.45;;;19.14;100.00
11413;BME280;5762;43.256;26.960;2022-09-01T04:31:54;99488.05;;;19.22;100.00
11413;BME280;5762;43.256;26.960;2022-09-01T04:34:24;99481.33;;;19.29;100.00
11413;BME280;5762;43.256;26.960;2022-09-01T04:36:53;99477.56;;;19.37;100.00
11413;BME280;5762;43.256;26.960;2022-09-01T04:39:23;99476.69;;;19.53;100.00
11413;BME280;5762;43.256;26.960;2022-09-01T04:41:51;99468.95;;;19.58;100.00
11413;BME280;5762;43.256;26.960;2022-09-01T04:44:22;99464.75;;;19.64;100.00
11413;BME280;5762;43.256;26.960;2022-09-01T04:46:50;99460.03;;;19.74;100.00
11413;BME280;5762;43.256;26.960;2022-09-01T04:49:21;99452.25;;;19.80;100.00
11413;BME280;5762;43.256;26.960;2022-09-01T04:54:22;99459.03;;;19.86;100.00
11413;BME280;5762;43.256;26.960;2022-09-01T04:56:51;99460.10;;;19.91;100.00
11413;BME280;5762;43.256;26.960;2022-09-01T04:59:21;99465.20;;;20.02;100.00
11413;BME280;5762;43.256;26.960;2022-09-01T05:04:21;99458.45;;;20.10;100.00
11413;BME280;5762;43.256;26.960;2022-09-01T05:06:50;99456.31;;;20.13;100.00
11413;BME280;5762;43.256;26.960;2022-09-01T05:09:19;99449.86;;;20.15;100.00
11413;BME280;5762;43.256;26.960;2022-09-01T05:11:48;99455.15;;;20.14;100.00
11413;BME280;5762;43.256;26.960;2022-09-01T05:14:17;99449.71;;;20.17;100.00
11413;BME280;5762;43.256;26.960;2022-09-01T05:16:47;99449.45;;;20.26;100.00
11413;BME280;5762;43.256;26.960;2022-09-01T05:19:17;99453.27;;;20.31;100.00
11413;BME280;5762;43.256;26.960;2022-09-01T05:21:47;99454.47;;;20.43;100.00
11413;BME280;5762;43.256;26.960;2022-09-01T05:24:17;99455.02;;;20.56;100.00
11413;BME280;5762;43.256;26.960;2022-09-01T05:29:16;99456.27;;;20.75;100.00
11413;BME280;5762;43.256;26.960;2022-09-01T05:31:46;99456.91;;;20.78;100.00
11413;BME280;5762;43.256;26.960;2022-09-01T05:34:15;99452.22;;;20.82;100.00
11413;BME280;5762;43.256;26.960;2022-09-01T05:36:44;99443.59;;;20.84;100.00
11413;BME280;5762;43.256;26.960;2022-09-01T05:39:14;99450.94;;;20.89;100.00
11413;BME280;5762;43.256;26.960;2022-09-01T05:41:43;99445.06;;;20.91;100.00
11413;BME280;5762;43.256;26.960;2022-09-01T05:44:13;99444.52;;;20.95;100.00
11413;BME280;5762;43.256;26.960;2022-09-01T05:46:42;99430.27;;;21.02;100.00
11413;BME280;5762;43.256;26.960;2022-09-01T05:49:12;99438.23;;;21.11;100.00
11413;BME280;5762;43.256;26.960;2022-09-01T05:51:41;99438.07;;;21.14;100.00
11413;BME280;5762;43.256;26.960;2022-09-01T05:54:12;99432.20;;;21.19;100.00
11413;BME280;5762;43.256;26.960;2022-09-01T05:56:42;99439.53;;;21.37;100.00
11413;BME280;5762;43.256;26.960;2022-09-01T05:59:12;99439.11;;;21.35;100.00
11413;BME280;5762;43.256;26.960;2022-09-01T06:04:12;99435.89;;;21.50;100.00
11413;BME280;5762;43.256;26.960;2022-09-01T06:06:43;99432.42;;;21.57;100.00
11413;BME280;5762;43.256;26.960;2022-09-01T06:09:12;99433.28;;;21.64;100.00
11413;BME280;5762;43.256;26.960;2022-09-01T06:11:44;99436.77;;;21.78;100.00
11413;BME280;5762;43.256;26.960;2022-09-01T06:14:13;99436.45;;;21.90;100.00
11413;BME280;5762;43.256;26.960;2022-09-01T06:16:43;99439.03;;;21.93;100.00
11413;BME280;5762;43.256;26.960;2022-09-01T06:19:12;99436.81;;;22.05;100.00
11413;BME280;5762;43.256;26.960;2022-09-01T06:21:41;99428.36;;;22.08;100.00
11413;BME280;5762;43.256;26.960;2022-09-01T06:24:11;99422.52;;;22.20;100.00
11413;BME280;5762;43.256;26.960;2022-09-01T06:26:43;99424.74;;;22.28;100.00
11413;BME280;5762;43.256;26.960;2022-09-01T06:29:12;99427.19;;;22.40;100.00
11413;BME280;5762;43.256;26.960;2022-09-01T06:31:41;99421.95;;;22.59;100.00
11413;BME280;5762;43.256;26.960;2022-09-01T06:34:13;99422.91;;;22.53;100.00
11413;BME280;5762;43.256;26.960;2022-09-01T06:36:43;99422.97;;;22.64;100.00
11413;BME280;5762;43.256;26.960;2022-09-01T06:39:13;99422.41;;;22.68;100.00
11413;BME280;5762;43.256;26.960;2022-09-01T06:41:43;99417.58;;;22.82;100.00
11413;BME280;5762;43.256;26.960;2022-09-01T06:44:12;99418.77;;;22.91;100.00
11413;BME280;5762;43.256;26.960;2022-09-01T06:46:41;99419.66;;;23.17;100.00
11413;BME280;5762;43.256;26.960;2022-09-01T06:49:10;99415.92;;;23.19;100.00
11413;BME280;5762;43.256;26.960;2022-09-01T06:51:39;99417.13;;;23.35;100.00
11413;BME280;5762;43.256;26.960;2022-09-01T06:54:08;99419.95;;;23.53;100.00
11413;BME280;5762;43.256;26.960;2022-09-01T06:56:38;99411.48;;;23.56;100.00
11413;BME280;5762;43.256;26.960;2022-09-01T06:59:07;99415.61;;;23.63;100.00
11413;BME280;5762;43.256;26.960;2022-09-01T07:04:12;99416.39;;;23.99;100.00
11413;BME280;5762;43.256;26.960;2022-09-01T07:06:41;99422.14;;;23.89;100.00
11413;BME280;5762;43.256;26.960;2022-09-01T07:09:11;99424.69;;;23.67;100.00
11413;BME280;5762;43.256;26.960;2022-09-01T07:11:40;99427.05;;;23.65;100.00
11413;BME280;5762;43.256;26.960;2022-09-01T07:14:09;99428.44;;;23.68;100.00
11413;BME280;5762;43.256;26.960;2022-09-01T07:16:38;99426.47;;;23.76;100.00
11413;BME280;5762;43.256;26.960;2022-09-01T07:19:08;99425.27;;;23.95;100.00
11413;BME280;5762;43.256;26.960;2022-09-01T07:21:37;99424.28;;;24.15;100.00
11413;BME280;5762;43.256;26.960;2022-09-01T07:24:07;99417.17;;;24.06;100.00
11413;BME280;5762;43.256;26.960;2022-09-01T07:26:36;99415.20;;;24.18;100.00
11413;BME280;5762;43.256;26.960;2022-09-01T07:29:08;99419.54;;;24.19;100.00
11413;BME280;5762;43.256;26.960;2022-09-01T07:31:38;99412.23;;;24.24;100.00
11413;BME280;5762;43.256;26.960;2022-09-01T07:34:09;99413.78;;;24.39;100.00
11413;BME280;5762;43.256;26.960;2022-09-01T07:36:38;99412.20;;;24.42;100.00
11413;BME280;5762;43.256;26.960;2022-09-01T07:39:08;99412.52;;;24.61;100.00
11413;BME280;5762;43.256;26.960;2022-09-01T07:41:37;99414.08;;;24.69;100.00
11413;BME280;5762;43.256;26.960;2022-09-01T07:44:07;99411.69;;;24.79;100.00
11413;BME280;5762;43.256;26.960;2022-09-01T07:49:08;99416.28;;;25.14;100.00
11413;BME280;5762;43.256;26.960;2022-09-01T07:51:38;99408.75;;;25.18;100.00
11413;BME280;5762;43.256;26.960;2022-09-01T07:54:07;99401.08;;;25.39;100.00
11413;BME280;5762;43.256;26.960;2022-09-01T07:56:36;99407.80;;;25.42;100.00
11413;BME280;5762;43.256;26.960;2022-09-01T07:59:05;99413.93;;;25.42;100.00
11413;BME280;5762;43.256;26.960;2022-09-01T08:01:35;99414.31;;;25.44;100.00
11413;BME280;5762;43.256;26.960;2022-09-01T08:04:04;99404.83;;;25.41;100.00
11413;BME280;5762;43.256;26.960;2022-09-01T08:06:33;99403.61;;;25.46;100.00
11413;BME280;5762;43.256;26.960;2022-09-01T08:09:03;99401.59;;;25.79;100.00
11413;BME280;5762;43.256;26.960;2022-09-01T08:14:02;99217.61;;;24.66;100.00
11413;BME280;5762;43.256;26.960;2022-09-01T08:16:31;99396.01;;;26.05;100.00
11413;BME280;5762;43.256;26.960;2022-09-01T08:19:00;99398.14;;;25.90;100.00
11413;BME280;5762;43.256;26.960;2022-09-01T08:21:29;99398.00;;;26.04;100.00
11413;BME280;5762;43.256;26.960;2022-09-01T08:23:58;99394.12;;;25.98;100.00
11413;BME280;5762;43.256;26.960;2022-09-01T08:26:27;99394.30;;;26.18;100.00
11413;BME280;5762;43.256;26.960;2022-09-01T08:28:57;99393.23;;;26.05;100.00
11413;BME280;5762;43.256;26.960;2022-09-01T08:31:26;99388.41;;;26.13;100.00
11413;BME280;5762;43.256;26.960;2022-09-01T08:33:55;99388.98;;;26.16;100.00
11413;BME280;5762;43.256;26.960;2022-09-01T08:36:24;99387.45;;;26.30;100.00
11413;BME280;5762;43.256;26.960;2022-09-01T08:38:53;99383.89;;;26.48;100.00
11413;BME280;5762;43.256;26.960;2022-09-01T08:46:24;99381.42;;;26.88;100.00
11413;BME280;5762;43.256;26.960;2022-09-01T08:48:54;99378.72;;;26.99;100.00
11413;BME280;5762;43.256;26.960;2022-09-01T08:51:24;99378.72;;;26.99;100.00
11413;BME280;5762;43.256;26.960;2022-09-01T08:53:57;99377.30;;;27.15;100.00
11413;BME280;5762;43.256;26.960;2022-09-01T08:56:20;99358.19;;;27.05;100.00
11413;BME280;5762;43.256;26.960;2022-09-01T08:58:50;99361.69;;;27.24;100.00
11413;BME280;5762;43.256;26.960;2022-09-01T09:01:22;99353.27;;;27.16;100.00
11413;BME280;5762;43.256;26.960;2022-09-01T09:03:57;99352.69;;;27.28;100.00
11413;BME280;5762;43.256;26.960;2022-09-01T09:06:23;99359.72;;;27.36;100.00
11413;BME280;5762;43.256;26.960;2022-09-01T09:16:21;99357.15;;;27.84;100.00
11413;BME280;5762;43.256;26.960;2022-09-01T09:21:21;99349.34;;;27.87;100.00
11413;BME280;5762;43.256;26.960;2022-09-01T09:23:52;99354.66;;;28.01;100.00
11413;BME280;5762;43.256;26.960;2022-09-01T09:26:19;99351.03;;;28.05;100.00
11413;BME280;5762;43.256;26.960;2022-09-01T09:28:48;99343.55;;;27.78;100.00
11413;BME280;5762;43.256;26.960;2022-09-01T09:33:46;99335.03;;;28.09;100.00
11413;BME280;5762;43.256;26.960;2022-09-01T09:36:18;99332.53;;;28.38;100.00
11413;BME280;5762;43.256;26.960;2022-09-01T09:38:45;99328.42;;;28.34;100.00
11413;BME280;5762;43.256;26.960;2022-09-01T09:41:17;99327.05;;;28.42;100.00
11413;BME280;5762;43.256;26.960;2022-09-01T09:48:44;99326.64;;;28.72;100.00
11413;BME280;5762;43.256;26.960;2022-09-01T09:51:14;99322.29;;;28.71;100.00
11413;BME280;5762;43.256;26.960;2022-09-01T09:58:43;99315.86;;;28.74;100.00
11413;BME280;5762;43.256;26.960;2022-09-01T10:03:43;99322.00;;;28.93;100.00
11413;BME280;5762;43.256;26.960;2022-09-01T10:06:12;99324.39;;;28.75;100.00
11413;BME280;5762;43.256;26.960;2022-09-01T10:08:42;99322.46;;;28.80;100.00
11413;BME280;5762;43.256;26.960;2022-09-01T10:11:23;99307.40;;;28.69;100.00
11413;BME280;5762;43.256;26.960;2022-09-01T10:13:41;99310.11;;;28.81;100.00
11413;BME280;5762;43.256;26.960;2022-09-01T10:16:14;99300.44;;;29.05;100.00
11413;BME280;5762;43.256;26.960;2022-09-01T10:18:41;99299.92;;;29.34;100.00
11413;BME280;5762;43.256;26.960;2022-09-01T10:23:39;99299.64;;;29.78;100.00
11413;BME280;5762;43.256;26.960;2022-09-01T10:28:43;99293.30;;;29.61;100.00
11413;BME280;5762;43.256;26.960;2022-09-01T10:31:08;99296.73;;;29.44;100.00
11413;BME280;5762;43.256;26.960;2022-09-01T10:33:37;99285.98;;;29.59;100.00
11413;BME280;5762;43.256;26.960;2022-09-01T10:36:06;99291.29;;;29.61;100.00
11413;BME280;5762;43.256;26.960;2022-09-01T10:38:36;99288.84;;;29.72;100.00
11413;BME280;5762;43.256;26.960;2022-09-01T10:41:05;99294.71;;;29.90;100.00
11413;BME280;5762;43.256;26.960;2022-09-01T10:48:35;99277.78;;;29.97;100.00
11413;BME280;5762;43.256;26.960;2022-09-01T10:52:05;99279.80;;;29.88;100.00
11413;BME280;5762;43.256;26.960;2022-09-01T10:58:42;99270.91;;;30.43;98.87
11413;BME280;5762;43.256;26.960;2022-09-01T11:01:07;99267.20;;;30.67;98.98
11413;BME280;5762;43.256;26.960;2022-09-01T11:03:37;99267.44;;;30.73;96.92
11413;BME280;5762;43.256;26.960;2022-09-01T11:06:06;99265.41;;;30.86;95.90
11413;BME280;5762;43.256;26.960;2022-09-01T11:16:40;99251.37;;;31.19;85.22
11413;BME280;5762;43.256;26.960;2022-09-01T11:18:34;99244.44;;;31.11;83.60
11413;BME280;5762;43.256;26.960;2022-09-01T11:21:13;99247.69;;;30.97;82.49
11413;BME280;5762;43.256;26.960;2022-09-01T11:23:33;99245.59;;;31.14;75.91
11413;BME280;5762;43.256;26.960;2022-09-01T11:36:04;99228.20;;;31.31;73.28
11413;BME280;5762;43.256;26.960;2022-09-01T11:38:31;99228.86;;;31.36;72.79
11413;BME280;5762;43.256;26.960;2022-09-01T11:41:00;99225.50;;;31.75;74.06
11413;BME280;5762;43.256;26.960;2022-09-01T11:43:29;99224.06;;;32.14;69.68
11413;BME280;5762;43.256;26.960;2022-09-01T11:48:28;99221.25;;;32.36;70.45
11413;BME280;5762;43.256;26.960;2022-09-01T11:50:58;99223.61;;;32.16;66.38
11413;BME280;5762;43.256;26.960;2022-09-01T11:53:27;99225.95;;;31.95;67.12
11413;BME280;5762;43.256;26.960;2022-09-01T11:56:10;99227.09;;;32.24;65.18
11413;BME280;5762;43.256;26.960;2022-09-01T12:00:56;99222.27;;;32.25;64.01
11413;BME280;5762;43.256;26.960;2022-09-01T12:03:28;99220.22;;;32.21;62.57
11413;BME280;5762;43.256;26.960;2022-09-01T12:05:59;99224.61;;;32.53;61.32
11413;BME280;5762;43.256;26.960;2022-09-01T12:08:29;99216.77;;;32.17;64.96
11413;BME280;5762;43.256;26.960;2022-09-01T12:13:28;99222.42;;;32.52;68.15
11413;BME280;5762;43.256;26.960;2022-09-01T12:15:59;99208.14;;;32.07;68.44
11413;BME280;5762;43.256;26.960;2022-09-01T12:18:28;99212.20;;;32.32;69.66
11413;BME280;5762;43.256;26.960;2022-09-01T12:20:57;99207.07;;;32.71;70.23
11413;BME280;5762;43.256;26.960;2022-09-01T12:25:56;99206.43;;;32.67;66.50
11413;BME280;5762;43.256;26.960;2022-09-01T12:28:26;99199.64;;;32.41;65.61
11413;BME280;5762;43.256;26.960;2022-09-01T12:30:57;99203.23;;;32.77;62.75
11413;BME280;5762;43.256;26.960;2022-09-01T12:33:25;99197.52;;;32.90;62.32
11413;BME280;5762;43.256;26.960;2022-09-01T12:38:25;99191.05;;;32.36;63.94
11413;BME280;5762;43.256;26.960;2022-09-01T12:40:54;99188.82;;;32.26;65.12
11413;BME280;5762;43.256;26.960;2022-09-01T12:45:53;99176.80;;;32.96;63.37
11413;BME280;5762;43.256;26.960;2022-09-01T12:48:25;99177.50;;;32.74;62.62
11413;BME280;5762;43.256;26.960;2022-09-01T12:50:52;99179.59;;;32.83;62.48
11413;BME280;5762;43.256;26.960;2022-09-01T12:53:22;99174.95;;;33.07;62.41
11413;BME280;5762;43.256;26.960;2022-09-01T12:55:53;99176.22;;;33.20;61.45
11413;BME280;5762;43.256;26.960;2022-09-01T12:58:22;99170.75;;;33.12;61.46
11413;BME280;5762;43.256;26.960;2022-09-01T13:03:21;99172.64;;;33.19;62.48
11413;BME280;5762;43.256;26.960;2022-09-01T13:05:50;99167.03;;;33.19;61.43
11413;BME280;5762;43.256;26.960;2022-09-01T13:08:21;99165.81;;;33.48;60.28
11413;BME280;5762;43.256;26.960;2022-09-01T13:10:53;99166.88;;;33.69;59.55
11413;BME280;5762;43.256;26.960;2022-09-01T13:13:21;99165.14;;;33.12;60.27
11413;BME280;5762;43.256;26.960;2022-09-01T13:15:52;99158.79;;;33.34;60.22
11413;BME280;5762;43.256;26.960;2022-09-01T13:20:50;99155.44;;;32.81;60.39
11413;BME280;5762;43.256;26.960;2022-09-01T13:23:20;99153.91;;;32.98;61.13
11413;BME280;5762;43.256;26.960;2022-09-01T13:25:49;99155.30;;;32.93;61.63
11413;BME280;5762;43.256;26.960;2022-09-01T13:28:19;99161.43;;;33.24;61.94
11413;BME280;5762;43.256;26.960;2022-09-01T13:30:50;99152.35;;;33.02;62.06
11413;BME280;5762;43.256;26.960;2022-09-01T13:33:18;99152.41;;;33.43;60.62
11413;BME280;5762;43.256;26.960;2022-09-01T13:35:47;99159.11;;;33.41;60.00
11413;BME280;5762;43.256;26.960;2022-09-01T13:38:17;99156.45;;;33.28;60.83
11413;BME280;5762;43.256;26.960;2022-09-01T13:40:47;99151.88;;;32.98;63.78
11413;BME280;5762;43.256;26.960;2022-09-01T13:43:17;99156.00;;;32.71;63.79
11413;BME280;5762;43.256;26.960;2022-09-01T13:45:46;99158.11;;;32.44;63.59
11413;BME280;5762;43.256;26.960;2022-09-01T13:48:16;99151.48;;;32.69;64.21
11413;BME280;5762;43.256;26.960;2022-09-01T13:50:46;99148.29;;;32.84;63.84
11413;BME280;5762;43.256;26.960;2022-09-01T13:53:15;99137.70;;;32.97;62.83
11413;BME280;5762;43.256;26.960;2022-09-01T13:55:45;99148.16;;;33.11;63.03
11413;BME280;5762;43.256;26.960;2022-09-01T13:58:14;99141.96;;;33.39;62.17
11413;BME280;5762;43.256;26.960;2022-09-01T14:00:44;99150.34;;;33.93;59.87
11413;BME280;5762;43.256;26.960;2022-09-01T14:05:44;99154.42;;;32.65;89.86
11413;BME280;5762;43.256;26.960;2022-09-01T14:08:13;99153.23;;;31.61;100.00
11413;BME280;5762;43.256;26.960;2022-09-01T14:10:43;99149.66;;;30.91;100.00
11413;BME280;5762;43.256;26.960;2022-09-01T14:13:12;99156.19;;;30.63;100.00
11413;BME280;5762;43.256;26.960;2022-09-01T14:18:11;99160.33;;;29.79;100.00
11413;BME280;5762;43.256;26.960;2022-09-01T14:20:42;99161.65;;;29.74;100.00
11413;BME280;5762;43.256;26.960;2022-09-01T14:23:11;99165.30;;;29.92;100.00
11413;BME280;5762;43.256;26.960;2022-09-01T14:25:42;99164.00;;;29.76;100.00
11413;BME280;5762;43.256;26.960;2022-09-01T14:28:10;99164.47;;;29.66;100.00
11413;BME280;5762;43.256;26.960;2022-09-01T14:30:40;99170.39;;;29.23;100.00
11413;BME280;5762;43.256;26.960;2022-09-01T14:33:10;99172.57;;;29.15;100.00
11413;BME280;5762;43.256;26.960;2022-09-01T14:35:40;99171.98;;;28.75;100.00
11413;BME280;5762;43.256;26.960;2022-09-01T14:38:09;99176.23;;;28.80;100.00
11413;BME280;5762;43.256;26.960;2022-09-01T14:40:39;99180.25;;;28.71;100.00
11413;BME280;5762;43.256;26.960;2022-09-01T14:43:08;99189.19;;;28.54;100.00
11413;BME280;5762;43.256;26.960;2022-09-01T14:45:38;99180.57;;;28.40;100.00
11413;BME280;5762;43.256;26.960;2022-09-01T14:48:08;99179.15;;;28.12;100.00
11413;BME280;5762;43.256;26.960;2022-09-01T14:50:39;99190.59;;;27.98;100.00
11413;BME280;5762;43.256;26.960;2022-09-01T14:53:07;99204.17;;;27.53;100.00